createdAt,value
2022-08-07T00:05:24.098Z,17.48
2022-08-07T00:25:23.879Z,17.45
2022-08-07T00:45:23.863Z,17.45
2022-08-07T01:05:24.503Z,17.44
2022-08-07T01:25:40.785Z,17.4
2022-08-07T01:45:26.672Z,17.36
2022-08-07T02:05:42.901Z,17.35
2022-08-07T02:25:32.289Z,17.33
2022-08-07T02:45:54.755Z,17.29
2022-08-07T03:05:24.536Z,17.25
2022-08-07T03:25:23.730Z,17.24
2022-08-07T03:45:30.531Z,17.21
2022-08-07T04:05:23.884Z,17.16
2022-08-07T04:25:23.686Z,17.14
2022-08-07T04:45:44.631Z,17.12
2022-08-07T05:05:52.209Z,17.07
2022-08-07T05:25:26.412Z,17.04
2022-08-07T06:05:25.776Z,16.98
2022-08-07T06:25:23.561Z,16.94
2022-08-07T06:45:23.538Z,16.93
2022-08-07T07:06:02.195Z,16.88
2022-08-07T07:26:33.640Z,16.84
2022-08-07T07:46:35.912Z,16.84
2022-08-07T08:05:23.455Z,16.82
2022-08-07T08:25:27.123Z,16.78
2022-08-07T08:45:26.767Z,16.75
2022-08-07T09:05:32.198Z,16.73
2022-08-07T09:25:24.224Z,16.73
2022-08-07T09:47:26.700Z,16.71
2022-08-07T10:05:29.620Z,16.69
2022-08-07T10:25:23.088Z,16.66
2022-08-07T10:45:44.249Z,16.64
2022-08-07T11:05:24.082Z,16.63
2022-08-07T11:25:23.330Z,16.63
2022-08-07T11:45:23.673Z,16.63
2022-08-07T12:45:23.031Z,16.63
2022-08-07T13:25:24.411Z,16.64
2022-08-07T13:46:07.851Z,16.67
2022-08-07T14:05:23.042Z,16.72
2022-08-07T14:25:22.938Z,16.73
2022-08-07T14:45:22.976Z,16.76
2022-08-07T15:25:22.837Z,16.84
2022-08-07T15:45:22.841Z,16.89
2022-08-07T16:05:23.049Z,16.94
2022-08-07T16:25:52.270Z,17.01
2022-08-07T16:46:07.765Z,17.04
2022-08-07T17:06:01.622Z,17.12
2022-08-07T17:25:48.084Z,17.15
2022-08-07T17:45:23.423Z,17.23
2022-08-07T18:05:22.641Z,17.26
2022-08-07T18:25:24.364Z,17.33
2022-08-07T18:45:40.749Z,17.35
2022-08-07T19:05:22.596Z,17.42
2022-08-07T19:26:22.376Z,17.45
2022-08-07T19:46:01.055Z,17.47
2022-08-07T20:05:22.469Z,17.52
2022-08-07T20:45:32.520Z,17.55
2022-08-07T21:05:25.686Z,17.56
2022-08-07T21:25:22.371Z,17.58
2022-08-07T21:46:03.602Z,17.6
2022-08-07T22:05:45.029Z,17.61
2022-08-07T22:25:26.452Z,17.61
2022-08-07T22:46:05.183Z,17.61
2022-08-07T23:25:22.218Z,17.58
2022-08-07T23:45:32.747Z,17.57
